createdAt,value
2022-09-03T00:00:02.233Z,100241.56
2022-09-03T00:03:16.752Z,100239.98
2022-09-03T00:05:47.696Z,100237.22
2022-09-03T00:08:21.224Z,100235.33
2022-09-03T00:10:49.964Z,100235.38
2022-09-03T00:13:22.840Z,100243.12
2022-09-03T00:15:51.866Z,100245.72
2022-09-03T00:18:24.922Z,100243.15
2022-09-03T00:20:55.540Z,100239.52
2022-09-03T00:23:25.320Z,100236.31
2022-09-03T00:25:56.392Z,100232.13
2022-09-03T00:28:26.953Z,100232.48
2022-09-03T00:31:02.144Z,100238.80
2022-09-03T00:33:33.230Z,100239.59
2022-09-03T00:36:04.183Z,100242.93
2022-09-03T00:38:32.624Z,100240.64
2022-09-03T00:41:03.497Z,100246.30
2022-09-03T00:43:32.775Z,100245.69
2022-09-03T00:46:07.291Z,100243.10
2022-09-03T00:48:47.142Z,100240.33
2022-09-03T00:51:32.123Z,100240.41
2022-09-03T00:53:59.797Z,100242.16
2022-09-03T00:56:35.305Z,100245.52
2022-09-03T00:59:21.383Z,100246.59
2022-09-03T01:01:51.967Z,100247.27
2022-09-03T01:04:22.864Z,100251.40
2022-09-03T01:07:00.429Z,100252.42
2022-09-03T01:09:38.287Z,100252.27
2022-09-03T01:12:15.359Z,100255.53
2022-09-03T01:14:47.593Z,100258.91
2022-09-03T01:17:18.245Z,100261.46
2022-09-03T01:20:09.311Z,100260.23
2022-09-03T01:22:39.034Z,100262.25
2022-09-03T01:25:18.044Z,100264.13
2022-09-03T01:27:47.117Z,100265.27
2022-09-03T01:30:18.577Z,100270.33
2022-09-03T01:33:04.818Z,100270.90
2022-09-03T01:35:49.963Z,100269.59
2022-09-03T01:38:26.722Z,100273.01
2022-09-03T01:41:32.649Z,100274.66
2022-09-03T01:44:07.089Z,100278.37
2022-09-03T01:46:39.807Z,100277.72
2022-09-03T01:49:11.316Z,100270.27
2022-09-03T01:51:39.240Z,100273.42
2022-09-03T01:54:25.826Z,100276.20
2022-09-03T01:57:12.830Z,100280.04
2022-09-03T02:00:05.607Z,100282.34
2022-09-03T02:02:44.045Z,100282.70
2022-09-03T02:05:14.539Z,100281.34
2022-09-03T02:07:46.977Z,100287.69
2022-09-03T02:10:17.343Z,100292.73
2022-09-03T02:12:52.516Z,100291.22
2022-09-03T02:15:21.497Z,100288.30
2022-09-03T02:17:51.354Z,100286.75
2022-09-03T02:20:21.002Z,100289.52
2022-09-03T02:22:49.814Z,100286.86
2022-09-03T02:25:18.116Z,100293.64
2022-09-03T02:27:46.272Z,100294.55
2022-09-03T02:30:14.072Z,100296.86
2022-09-03T02:32:41.959Z,100299.26
2022-09-03T02:35:10.655Z,100301.86
2022-09-03T02:37:38.419Z,100305.54
2022-09-03T02:40:10.433Z,100306.52
2022-09-03T02:42:38.953Z,100304.87
2022-09-03T02:45:27.543Z,100301.03
2022-09-03T02:47:57.306Z,100302.18
2022-09-03T02:50:25.426Z,100299.91
2022-09-03T02:52:53.145Z,100302.08
2022-09-03T02:55:21.758Z,100305.52
2022-09-03T02:57:49.748Z,100308.73
2022-09-03T03:00:17.938Z,100311.80
2022-09-03T03:02:47.816Z,100315.52
2022-09-03T03:05:18.983Z,100316.70
2022-09-03T03:07:47.048Z,100318.65
2022-09-03T03:10:15.166Z,100319.84
2022-09-03T03:12:43.250Z,100319.46
2022-09-03T03:15:11.255Z,100318.98
2022-09-03T03:17:39.190Z,100318.17
2022-09-03T03:20:07.526Z,100313.50
2022-09-03T03:22:35.782Z,100314.59
2022-09-03T03:25:03.828Z,100317.52
2022-09-03T03:27:31.670Z,100315.95
2022-09-03T03:29:59.668Z,100316.27
2022-09-03T03:32:27.528Z,100316.09
2022-09-03T03:34:55.460Z,100314.63
2022-09-03T03:37:23.272Z,100318.38
2022-09-03T03:39:51.554Z,100320.21
2022-09-03T03:42:19.346Z,100321.23
2022-09-03T03:44:47.535Z,100323.79
2022-09-03T03:47:17.112Z,100324.57
2022-09-03T03:49:45.354Z,100329.50
2022-09-03T03:52:13.160Z,100325.64
2022-09-03T03:54:41.038Z,100322.84
2022-09-03T03:57:09.146Z,100321.13
2022-09-03T03:59:36.905Z,100322.71
2022-09-03T04:02:04.963Z,100325.98
2022-09-03T04:04:32.799Z,100323.79
2022-09-03T04:07:00.601Z,100322.19
2022-09-03T04:09:28.290Z,100323.69
2022-09-03T04:11:58.099Z,100319.98
2022-09-03T04:14:27.239Z,100322.29
2022-09-03T04:16:55.334Z,100323.64
2022-09-03T04:19:23.953Z,100326.59
2022-09-03T04:21:51.652Z,100327.41
2022-09-03T04:24:20.190Z,100328.80
2022-09-03T04:26:50.243Z,100327.44
2022-09-03T04:29:18.601Z,100327.79
2022-09-03T04:32:06.574Z,100326.50
2022-09-03T04:34:34.505Z,100332.10
2022-09-03T04:37:02.512Z,100337.69
2022-09-03T04:39:30.460Z,100336.23
2022-09-03T04:42:00.067Z,100338.74
2022-09-03T04:44:28.125Z,100337.04
2022-09-03T04:46:56.317Z,100340.83
2022-09-03T04:49:25.020Z,100346.04
2022-09-03T04:51:52.832Z,100343.91
2022-09-03T04:54:20.998Z,100349.02
2022-09-03T04:56:48.834Z,100352.66
2022-09-03T04:59:16.636Z,100359.61
2022-09-03T05:01:44.575Z,100361.23
2022-09-03T05:04:12.286Z,100360.70
2022-09-03T05:06:40.370Z,100355.44
2022-09-03T05:09:08.169Z,100356.01
2022-09-03T05:11:36.701Z,100359.61
2022-09-03T05:14:06.336Z,100359.95
2022-09-03T05:16:34.191Z,100357.88
2022-09-03T05:19:06.157Z,100358.00
2022-09-03T05:21:36.268Z,100360.44
2022-09-03T05:24:04.785Z,100361.35
2022-09-03T05:26:34.376Z,100362.30
2022-09-03T05:29:03.238Z,100364.98
2022-09-03T05:31:32.395Z,100363.79
2022-09-03T05:34:01.715Z,100363.04
2022-09-03T05:36:31.432Z,100363.23
2022-09-03T05:38:59.529Z,100364.45
2022-09-03T05:41:29.056Z,100365.20
2022-09-03T05:43:59.301Z,100373.79
2022-09-03T05:46:32.659Z,100379.48
2022-09-03T05:49:02.124Z,100380.52
2022-09-03T05:51:31.083Z,100381.70
2022-09-03T05:53:59.157Z,100383.19
2022-09-03T05:56:28.509Z,100385.46
2022-09-03T05:58:57.403Z,100387.41
2022-09-03T06:01:27.029Z,100386.25
2022-09-03T06:03:54.740Z,100385.98
2022-09-03T06:06:25.821Z,100384.83
2022-09-03T06:08:58.424Z,100383.02
2022-09-03T06:11:29.729Z,100382.60
2022-09-03T06:13:58.389Z,100382.66
2022-09-03T06:16:31.546Z,100382.08
2022-09-03T06:19:00.801Z,100381.45
2022-09-03T06:21:29.030Z,100379.60
2022-09-03T06:23:59.512Z,100381.85
2022-09-03T06:26:29.277Z,100386.25
2022-09-03T06:28:57.554Z,100386.19
2022-09-03T06:31:25.771Z,100389.23
2022-09-03T06:33:54.968Z,100390.33
2022-09-03T06:36:24.064Z,100390.27
2022-09-03T06:38:52.795Z,100390.86
2022-09-03T06:41:21.298Z,100386.91
2022-09-03T06:43:49.332Z,100391.98
2022-09-03T06:46:18.079Z,100395.61
2022-09-03T06:48:46.620Z,100398.50
2022-09-03T06:51:15.927Z,100398.56
2022-09-03T06:53:45.314Z,100398.41
2022-09-03T06:56:14.941Z,100400.38
2022-09-03T06:58:44.476Z,100407.35
2022-09-03T07:01:14.151Z,100406.73
2022-09-03T07:03:43.287Z,100409.46
2022-09-03T07:06:12.834Z,100414.52
2022-09-03T07:08:42.151Z,100419.55
2022-09-03T07:11:14.255Z,100417.35
2022-09-03T07:13:43.472Z,100419.60
2022-09-03T07:16:12.932Z,100420.91
2022-09-03T07:18:41.108Z,100420.85
2022-09-03T07:21:10.448Z,100422.57
2022-09-03T07:23:39.360Z,100422.85
2022-09-03T07:26:11.148Z,100428.13
2022-09-03T07:28:39.876Z,100429.33
2022-09-03T07:31:09.384Z,100433.97
2022-09-03T07:33:38.105Z,100441.00
2022-09-03T07:36:07.083Z,100443.98
2022-09-03T07:38:35.094Z,100440.02
2022-09-03T07:41:04.848Z,100443.11
2022-09-03T07:43:37.113Z,100440.05
2022-09-03T07:46:05.045Z,100441.77
2022-09-03T07:48:37.199Z,100443.02
2022-09-03T07:51:05.367Z,100449.52
2022-09-03T07:53:33.812Z,100446.78
2022-09-03T07:56:02.626Z,100442.64
2022-09-03T07:58:31.248Z,100445.89
2022-09-03T08:00:59.635Z,100445.33
2022-09-03T08:03:27.387Z,100450.44
2022-09-03T08:06:00.660Z,100455.41
2022-09-03T08:08:28.368Z,100456.21
2022-09-03T08:11:11.313Z,100455.92
2022-09-03T08:13:44.579Z,100458.16
2022-09-03T08:16:13.734Z,100464.20
2022-09-03T08:18:41.995Z,100462.30
2022-09-03T08:21:14.980Z,100464.38
2022-09-03T08:23:44.172Z,100461.02
2022-09-03T08:26:12.634Z,100455.62
2022-09-03T08:28:41.411Z,100454.96
2022-09-03T08:31:13.759Z,100458.60
2022-09-03T08:33:46.279Z,100459.41
2022-09-03T08:36:25.358Z,100460.98
2022-09-03T08:38:55.346Z,100464.76
2022-09-03T08:41:23.263Z,100459.73
2022-09-03T08:43:58.140Z,100462.53
2022-09-03T08:46:39.507Z,100461.33
2022-09-03T08:49:12.059Z,100454.14
2022-09-03T08:51:41.066Z,100450.14
2022-09-03T08:54:10.789Z,100452.40
2022-09-03T08:56:41.154Z,100460.02
2022-09-03T08:59:09.481Z,100468.20
2022-09-03T09:01:43.415Z,100470.10
2022-09-03T09:04:20.400Z,100469.35
2022-09-03T09:07:17.602Z,100470.39
2022-09-03T09:09:49.094Z,100470.46
2022-09-03T09:12:45.673Z,100474.85
2022-09-03T09:15:17.389Z,100471.27
2022-09-03T09:18:11.500Z,100469.60
2022-09-03T09:20:42.790Z,100466.75
2022-09-03T09:23:15.352Z,100464.05
2022-09-03T09:25:50.174Z,100458.33
2022-09-03T09:28:20.267Z,100452.09
2022-09-03T09:30:49.473Z,100455.38
2022-09-03T09:33:18.611Z,100461.23
2022-09-03T09:35:46.890Z,100463.16
2022-09-03T09:38:16.349Z,100469.50
2022-09-03T09:40:45.636Z,100469.22
2022-09-03T09:43:16.039Z,100469.21
2022-09-03T09:45:45.596Z,100474.58
2022-09-03T09:48:19.287Z,100475.43
2022-09-03T09:50:47.334Z,100474.73
2022-09-03T09:53:18.127Z,100476.84
2022-09-03T09:55:56.279Z,100474.39
2022-09-03T09:58:25.866Z,100474.27
2022-09-03T10:01:00.186Z,100471.91
2022-09-03T10:03:31.560Z,100468.52
2022-09-03T10:06:23.034Z,100462.02
2022-09-03T10:08:51.058Z,100455.08
2022-09-03T10:11:20.264Z,100453.70
2022-09-03T10:13:48.965Z,100450.01
2022-09-03T10:16:22.399Z,100456.23
2022-09-03T10:19:07.408Z,100454.75
2022-09-03T10:21:38.290Z,100457.21
2022-09-03T10:24:21.897Z,100454.92
2022-09-03T10:26:49.896Z,100457.77
2022-09-03T10:29:21.331Z,100459.96
2022-09-03T10:32:02.302Z,100457.03
2022-09-03T10:34:39.377Z,100456.75
2022-09-03T10:37:12.943Z,100457.83
2022-09-03T10:39:44.159Z,100454.83
2022-09-03T10:42:27.118Z,100457.59
2022-09-03T10:45:13.693Z,100456.52
2022-09-03T10:47:56.529Z,100454.98
2022-09-03T10:50:29.005Z,100456.73
2022-09-03T10:53:07.759Z,100457.44
2022-09-03T10:55:50.375Z,100452.40
2022-09-03T10:58:18.485Z,100454.14
2022-09-03T11:00:52.591Z,100456.58
2022-09-03T11:03:34.798Z,100454.95
2022-09-03T11:06:07.214Z,100454.04
2022-09-03T11:08:37.866Z,100454.09
2022-09-03T11:11:10.286Z,100454.55
2022-09-03T11:13:41.358Z,100456.35
2022-09-03T11:16:31.111Z,100454.41
2022-09-03T11:19:06.401Z,100460.27
2022-09-03T11:21:36.544Z,100461.67
2022-09-03T11:24:13.678Z,100466.29
2022-09-03T11:26:44.902Z,100467.64
2022-09-03T11:29:15.658Z,100464.58
2022-09-03T11:32:08.697Z,100463.91
2022-09-03T11:34:47.581Z,100466.64
2022-09-03T11:37:21.554Z,100465.27
2022-09-03T11:40:09.571Z,100463.61
2022-09-03T11:42:39.098Z,100463.31
2022-09-03T11:45:19.625Z,100465.98
2022-09-03T11:47:48.752Z,100464.63
2022-09-03T11:50:21.897Z,100459.80
2022-09-03T11:52:52.079Z,100459.70
2022-09-03T11:55:27.061Z,100459.42
2022-09-03T11:57:55.068Z,100454.21
2022-09-03T12:00:25.209Z,100455.48
2022-09-03T12:02:59.157Z,100453.71
2022-09-03T12:05:42.446Z,100455.86
2022-09-03T12:08:10.402Z,100453.14
2022-09-03T12:10:45.008Z,100450.70
2022-09-03T12:13:21.752Z,100448.73
2022-09-03T12:16:10.264Z,100448.43
2022-09-03T12:18:41.568Z,100451.27
2022-09-03T12:21:10.649Z,100448.32
2022-09-03T12:23:50.641Z,100449.61
2022-09-03T12:26:19.974Z,100448.70
2022-09-03T12:28:49.403Z,100448.34
2022-09-03T12:31:23.197Z,100452.45
2022-09-03T12:33:51.628Z,100453.08
2022-09-03T12:36:20.008Z,100454.36
2022-09-03T12:39:10.482Z,100460.27
2022-09-03T12:41:36.436Z,100455.63
2022-09-03T12:44:04.994Z,100453.05
2022-09-03T12:46:34.478Z,100455.05
2022-09-03T12:52:03.077Z,100445.10
2022-09-03T12:54:35.114Z,100445.52
2022-09-03T12:57:03.606Z,100436.91
2022-09-03T12:59:34.698Z,100439.06
2022-09-03T13:02:05.946Z,100439.98
2022-09-03T13:04:36.173Z,100439.39
2022-09-03T13:07:07.063Z,100437.92
2022-09-03T13:09:38.076Z,100440.92
2022-09-03T13:12:06.463Z,100436.11
2022-09-03T13:14:44.504Z,100443.17
2022-09-03T13:17:38.572Z,100439.90
2022-09-03T13:20:27.196Z,100439.15
2022-09-03T13:23:05.844Z,100437.11
2022-09-03T13:25:37.041Z,100434.13
2022-09-03T13:28:10.945Z,100436.85
2022-09-03T13:30:48.496Z,100436.51
2022-09-03T13:33:29.271Z,100435.82
2022-09-03T13:36:14.265Z,100433.21
2022-09-03T13:38:46.633Z,100431.09
2022-09-03T13:41:20.720Z,100430.56
2022-09-03T13:44:09.574Z,100426.91
2022-09-03T13:46:44.274Z,100428.83
2022-09-03T13:49:39.464Z,100427.25
2022-09-03T13:52:12.244Z,100428.05
2022-09-03T13:54:49.907Z,100426.26
2022-09-03T13:57:23.703Z,100425.95
2022-09-03T13:59:55.463Z,100427.56
2022-09-03T14:02:23.595Z,100432.36
2022-09-03T14:04:54.596Z,100433.65
2022-09-03T14:07:27.229Z,100433.59
2022-09-03T14:10:03.831Z,100436.45
2022-09-03T14:12:37.531Z,100437.48
2022-09-03T14:15:10.662Z,100441.39
2022-09-03T14:17:41.422Z,100439.77
2022-09-03T14:20:21.387Z,100433.38
2022-09-03T14:22:55.055Z,100430.09
2022-09-03T14:25:24.745Z,100434.00
2022-09-03T14:27:53.139Z,100433.89
2022-09-03T14:30:54.807Z,100433.05
2022-09-03T14:33:31.537Z,100429.88
2022-09-03T14:36:17.475Z,100427.55
2022-09-03T14:38:49.208Z,100421.55
2022-09-03T14:41:32.945Z,100420.61
2022-09-03T14:44:07.122Z,100419.86
2022-09-03T14:46:44.232Z,100419.42
2022-09-03T14:49:15.686Z,100424.61
2022-09-03T14:52:01.566Z,100425.04
2022-09-03T14:54:46.161Z,100423.52
2022-09-03T14:57:26.748Z,100421.16
2022-09-03T15:00:18.315Z,100418.01
2022-09-03T15:02:51.364Z,100415.24
2022-09-03T15:05:38.909Z,100417.00
2022-09-03T15:08:06.900Z,100412.84
2022-09-03T15:10:42.962Z,100415.13
2022-09-03T15:13:16.606Z,100417.38
2022-09-03T15:15:54.475Z,100414.97
2022-09-03T15:18:41.416Z,100412.97
2022-09-03T15:21:21.262Z,100421.04
2022-09-03T15:23:55.525Z,100421.91
2022-09-03T15:26:42.024Z,100422.02
2022-09-03T15:29:36.778Z,100424.36
2022-09-03T15:32:32.299Z,100428.22
2022-09-03T15:35:05.617Z,100427.95
2022-09-03T15:37:33.742Z,100424.07
2022-09-03T15:40:05.985Z,100422.52
2022-09-03T15:42:34.404Z,100423.10
2022-09-03T15:45:22.743Z,100419.48
2022-09-03T15:47:56.115Z,100422.45
2022-09-03T15:50:29.393Z,100419.72
2022-09-03T15:53:12.500Z,100429.32
2022-09-03T15:55:42.596Z,100433.17
2022-09-03T15:58:22.624Z,100429.14
2022-09-03T16:01:00.108Z,100426.55
2022-09-03T16:03:45.555Z,100429.64
2022-09-03T16:06:38.434Z,100430.21
2022-09-03T16:09:09.475Z,100427.67
2022-09-03T16:11:58.033Z,100425.96
2022-09-03T16:14:38.497Z,100426.98
2022-09-03T16:17:16.419Z,100428.04
2022-09-03T16:19:48.499Z,100426.19
2022-09-03T16:22:19.712Z,100420.61
2022-09-03T16:24:52.866Z,100423.27
2022-09-03T16:27:20.684Z,100420.64
2022-09-03T16:30:14.558Z,100423.25
2022-09-03T16:32:42.300Z,100423.41
2022-09-03T16:35:10.266Z,100422.52
2022-09-03T16:37:47.616Z,100427.21
2022-09-03T16:40:26.485Z,100426.31
2022-09-03T16:43:00.390Z,100426.48
2022-09-03T16:45:33.512Z,100425.86
2022-09-03T16:48:14.477Z,100427.52
2022-09-03T16:50:53.985Z,100430.79
2022-09-03T16:53:35.535Z,100433.42
2022-09-03T16:56:24.957Z,100434.48
2022-09-03T16:59:12.799Z,100423.65
2022-09-03T17:01:40.937Z,100428.20
2022-09-03T17:04:29.809Z,100430.29
2022-09-03T17:06:57.625Z,100431.92
2022-09-03T17:09:44.027Z,100438.88
2022-09-03T17:12:22.466Z,100442.65
2022-09-03T17:15:00.638Z,100437.10
2022-09-03T17:17:45.663Z,100437.42
2022-09-03T17:20:24.084Z,100439.59
2022-09-03T17:23:07.272Z,100438.13
2022-09-03T17:25:50.071Z,100435.67
2022-09-03T17:28:36.299Z,100439.73
2022-09-03T17:31:22.323Z,100440.27
2022-09-03T17:33:53.257Z,100447.33
2022-09-03T17:36:27.243Z,100446.65
2022-09-03T17:39:11.448Z,100449.98
2022-09-03T17:41:46.772Z,100448.86
2022-09-03T17:44:21.099Z,100455.54
2022-09-03T17:46:51.805Z,100456.29
2022-09-03T17:49:28.010Z,100461.09
2022-09-03T17:52:03.294Z,100464.98
2022-09-03T17:54:45.758Z,100468.74
2022-09-03T17:57:21.902Z,100474.20
2022-09-03T17:59:54.913Z,100478.64
2022-09-03T18:02:40.005Z,100483.62
2022-09-03T18:05:43.129Z,100484.95
2022-09-03T18:08:12.563Z,100488.57
2022-09-03T18:10:54.974Z,100490.13
2022-09-03T18:13:40.780Z,100493.67
2022-09-03T18:16:14.286Z,100498.61
2022-09-03T18:18:50.478Z,100502.05
2022-09-03T18:21:41.226Z,100502.27
2022-09-03T18:24:45.974Z,100509.33
2022-09-03T18:27:51.713Z,100510.23
2022-09-03T18:30:38.390Z,100512.34
2022-09-03T18:33:24.762Z,100517.11
2022-09-03T18:36:11.044Z,100522.73
2022-09-03T18:38:58.040Z,100521.85
2022-09-03T18:41:44.489Z,100520.55
2022-09-03T18:44:41.857Z,100519.91
2022-09-03T18:48:01.457Z,100514.45
2022-09-03T18:51:10.986Z,100515.70
2022-09-03T18:54:02.975Z,100518.10
2022-09-03T18:57:22.112Z,100523.77
2022-09-03T19:00:08.465Z,100527.17
2022-09-03T19:02:58.434Z,100530.85
2022-09-03T19:06:03.540Z,100529.50
2022-09-03T19:08:55.761Z,100529.89
2022-09-03T19:11:48.135Z,100533.25
2022-09-03T19:14:56.782Z,100533.13
2022-09-03T19:17:58.997Z,100537.27
2022-09-03T19:20:49.887Z,100532.83
2022-09-03T19:23:36.445Z,100540.77
2022-09-03T19:26:26.612Z,100541.86
2022-09-03T19:29:15.343Z,100540.64
2022-09-03T19:32:05.047Z,100538.13
2022-09-03T19:35:06.960Z,100535.60
2022-09-03T19:37:53.665Z,100538.55
2022-09-03T19:41:02.304Z,100540.38
2022-09-03T19:43:54.800Z,100540.94
2022-09-03T19:46:48.954Z,100540.98
2022-09-03T19:49:41.845Z,100542.15
2022-09-03T19:52:37.889Z,100541.98
2022-09-03T19:55:25.033Z,100540.87
2022-09-03T19:58:39.557Z,100539.89
2022-09-03T20:01:24.864Z,100536.69
2022-09-03T20:04:11.647Z,100537.61
2022-09-03T20:06:57.757Z,100536.38
2022-09-03T20:09:48.012Z,100538.76
2022-09-03T20:12:20.356Z,100544.04
2022-09-03T20:14:48.589Z,100545.96
2022-09-03T20:17:38.448Z,100545.17
2022-09-03T20:20:25.167Z,100550.09
2022-09-03T20:22:57.624Z,100552.31
2022-09-03T20:25:31.636Z,100551.00
2022-09-03T20:28:02.950Z,100553.02
2022-09-03T20:30:36.026Z,100556.27
2022-09-03T20:33:11.047Z,100557.34
2022-09-03T20:35:44.975Z,100556.80
2022-09-03T20:38:15.834Z,100556.64
2022-09-03T20:40:43.534Z,100558.21
2022-09-03T20:43:14.749Z,100560.24
2022-09-03T20:45:51.726Z,100560.39
2022-09-03T20:48:25.236Z,100559.80
2022-09-03T20:50:57.424Z,100561.53
2022-09-03T20:53:28.684Z,100562.68
2022-09-03T20:56:12.478Z,100567.96
2022-09-03T20:58:40.215Z,100575.67
2022-09-03T21:01:09.309Z,100578.17
2022-09-03T21:04:04.215Z,100578.52
2022-09-03T21:06:35.052Z,100582.61
2022-09-03T21:09:21.313Z,100576.95
2022-09-03T21:11:55.357Z,100576.86
2022-09-03T21:14:25.956Z,100576.58
2022-09-03T21:17:04.949Z,100580.52
2022-09-03T21:19:39.009Z,100586.27
2022-09-03T21:22:24.648Z,100589.30
2022-09-03T21:24:55.934Z,100586.71
2022-09-03T21:27:26.734Z,100585.23
2022-09-03T21:30:02.788Z,100584.27
2022-09-03T21:32:48.557Z,100585.21
2022-09-03T21:35:28.558Z,100587.27
2022-09-03T21:37:56.387Z,100594.89
2022-09-03T21:40:26.965Z,100598.73
2022-09-03T21:43:02.521Z,100597.00
2022-09-03T21:46:00.056Z,100596.75
2022-09-03T21:48:47.863Z,100592.34
2022-09-03T21:51:18.684Z,100593.98
2022-09-03T21:53:50.947Z,100595.24
2022-09-03T21:56:24.790Z,100596.21
2022-09-03T21:59:00.051Z,100596.20
2022-09-03T22:01:33.210Z,100603.25
2022-09-03T22:04:01.234Z,100600.63
2022-09-03T22:06:36.188Z,100600.58
2022-09-03T22:09:04.844Z,100602.80
2022-09-03T22:11:36.137Z,100610.03
2022-09-03T22:14:13.011Z,100609.37
2022-09-03T22:16:46.771Z,100611.35
2022-09-03T22:19:15.204Z,100610.55
2022-09-03T22:22:00.018Z,100608.34
2022-09-03T22:24:28.041Z,100603.80
2022-09-03T22:27:19.576Z,100606.27
2022-09-03T22:30:03.146Z,100601.63
2022-09-03T22:32:40.724Z,100600.27
2022-09-03T22:35:35.284Z,100600.63
2022-09-03T22:38:05.949Z,100603.89
2022-09-03T22:40:37.084Z,100605.20
2022-09-03T22:43:12.571Z,100604.40
2022-09-03T22:45:51.106Z,100611.99
2022-09-03T22:48:18.931Z,100612.52
2022-09-03T22:51:05.018Z,100613.41
2022-09-03T22:53:32.756Z,100616.71
2022-09-03T22:56:15.437Z,100615.40
2022-09-03T22:59:01.864Z,100612.09
2022-09-03T23:01:34.779Z,100613.85
2022-09-03T23:04:17.717Z,100611.52
2022-09-03T23:07:08.645Z,100613.95
2022-09-03T23:09:38.480Z,100615.24
2022-09-03T23:12:08.969Z,100616.20
2022-09-03T23:14:41.658Z,100614.52
2022-09-03T23:17:14.734Z,100615.30
2022-09-03T23:19:44.901Z,100613.16
2022-09-03T23:22:17.996Z,100611.31
2022-09-03T23:25:21.429Z,100611.08
2022-09-03T23:28:08.066Z,100611.55
2022-09-03T23:30:36.591Z,100607.71
2022-09-03T23:33:04.393Z,100604.79
2022-09-03T23:35:38.276Z,100605.75
2022-09-03T23:38:12.212Z,100613.58
2022-09-03T23:40:45.664Z,100617.95
2022-09-03T23:43:31.901Z,100614.10
2022-09-03T23:46:37.935Z,100613.35
2022-09-03T23:49:28.923Z,100615.77
2022-09-03T23:52:12.536Z,100619.65
2022-09-03T23:54:40.505Z,100617.84
2022-09-03T23:57:20.271Z,100619.73
2022-09-03T23:59:59.918Z,100621.38
